Time;durP1;ratioP1;P1;durP2;ratioP2;P2;SDS_P1;SDS_P2;PMS_P1;PMS_P2;Temp;Humidity;BMP_temperature;BMP_pressure;BME280_temperature;BME280_humidity;BME280_pressure;Samples;Min_cycle;Max_cycle;Signal;HPM_P1;HPM_P2
2021/10/15 00:01:50;;;;;;;4.58;3.58;;;;;;;15.28;50.31;100088.00;2374754;82;25678;-73
2021/10/15 00:05:11;;;;;;;4.90;3.65;;;;;;;15.41;50.20;100105.95;2396546;82;30791;-72
2021/10/15 00:08:32;;;;;;;5.40;3.42;;;;;;;15.42;50.28;100109.45;2396690;82;25769;-72
2021/10/15 00:11:53;;;;;;;4.72;3.55;;;;;;;15.41;50.34;100105.95;2396307;82;31144;-71
2021/10/15 00:15:14;;;;;;;3.42;2.98;;;;;;;15.41;50.42;100107.27;2396977;82;30890;-72
2021/10/15 00:18:35;;;;;;;5.87;3.12;;;;;;;15.41;50.48;100102.01;2396924;81;31271;-71
2021/10/15 00:21:55;;;;;;;3.58;3.22;;;;;;;15.42;50.50;100101.56;2384333;82;25661;-72
2021/10/15 00:25:16;;;;;;;3.52;2.95;;;;;;;15.41;50.61;100096.76;2396432;82;31389;-71
2021/10/15 00:28:38;;;;;;;3.70;3.30;;;;;;;15.40;50.56;100091.08;2396861;82;25543;-72
2021/10/15 00:31:59;;;;;;;3.92;3.33;;;;;;;15.41;50.60;100089.31;2396015;82;25957;-71
2021/10/15 00:35:20;;;;;;;3.55;3.25;;;;;;;15.29;50.68;100067.89;2396433;82;25717;-72
2021/10/15 00:38:41;;;;;;;3.50;3.20;;;;;;;15.41;50.71;100090.63;2396430;82;31279;-71
2021/10/15 00:42:03;;;;;;;2.70;2.50;;;;;;;15.41;50.78;100090.19;2354968;82;31360;-71
2021/10/15 00:45:25;;;;;;;3.75;2.83;;;;;;;15.41;50.85;100082.31;2396086;82;25642;-72
2021/10/15 00:48:51;;;;;;;3.70;3.33;;;;;;;15.19;50.92;100041.20;2396130;82;25832;-71
2021/10/15 00:52:15;;;;;;;5.60;2.75;;;;;;;15.41;50.89;100081.44;2402215;82;25929;-71
2021/10/15 00:55:39;;;;;;;2.60;2.40;;;;;;;15.40;50.88;100081.02;2396842;82;25649;-71
2021/10/15 00:59:01;;;;;;;3.02;2.72;;;;;;;15.40;51.10;100075.31;2396680;82;25682;-71
2021/10/15 01:02:32;;;;;;;3.33;2.60;;;;;;;15.40;51.08;100077.07;2396593;81;25681;-72
2021/10/15 01:05:52;;;;;;;2.92;2.30;;;;;;;15.39;51.22;100071.36;2394161;82;25636;-72
2021/10/15 01:09:14;;;;;;;2.33;2.12;;;;;;;15.39;51.25;100070.05;2392087;82;25570;-71
2021/10/15 01:12:49;;;;;;;2.47;2.00;;;;;;;15.39;51.56;100060.85;2395084;82;25584;-71
2021/10/15 01:16:17;;;;;;;1.98;1.80;;;;;;;15.39;51.56;100060.85;2394130;82;25728;-72
2021/10/15 01:20:02;;;;;;;2.40;2.20;;;;;;;15.33;51.40;100047.31;2396432;82;25832;-71
2021/10/15 01:23:19;;;;;;;3.20;2.08;;;;;;;15.38;51.49;100057.36;2286925;83;25691;-72
2021/10/15 01:26:41;;;;;;;2.55;2.30;;;;;;;15.31;51.53;100035.92;2245250;86;25824;-71
2021/10/15 01:30:03;;;;;;;3.37;2.62;;;;;;;15.37;51.55;100060.00;2243073;88;26213;-71
2021/10/15 01:33:25;;;;;;;2.70;2.10;;;;;;;15.38;51.63;100049.48;2291651;85;25729;-71
2021/10/15 01:36:45;;;;;;;2.83;2.35;;;;;;;15.37;51.67;100049.05;2244840;88;25763;-71
2021/10/15 01:40:11;;;;;;;2.50;2.30;;;;;;;15.37;51.67;100049.05;2290100;85;30904;-72
2021/10/15 01:43:32;;;;;;;2.58;2.37;;;;;;;15.38;51.77;100042.04;2288446;86;25829;-71
2021/10/15 01:46:53;;;;;;;2.15;2.00;;;;;;;15.24;51.79;100011.41;2289312;86;30923;-71
2021/10/15 01:50:20;;;;;;;3.45;2.20;;;;;;;15.38;51.91;100028.91;2243574;86;31506;-71
2021/10/15 01:53:41;;;;;;;3.52;2.87;;;;;;;15.38;51.93;100038.97;2290713;86;25731;-72
2021/10/15 01:57:02;;;;;;;2.77;2.22;;;;;;;15.38;51.92;100046.84;2245814;88;31421;-71
2021/10/15 02:00:23;;;;;;;2.70;2.50;;;;;;;15.39;52.01;100044.69;2291073;85;25782;-72
2021/10/15 02:03:44;;;;;;;3.30;2.77;;;;;;;15.26;52.00;100013.61;2290950;86;30987;-71
2021/10/15 02:07:24;;;;;;;3.52;3.22;;;;;;;15.39;52.04;100043.78;2245008;88;25727;-71
2021/10/15 02:10:49;;;;;;;;;;;;;;;15.39;52.11;100034.17;2292447;85;25752;-71
2021/10/15 02:14:10;;;;;;;3.33;2.92;;;;;;;15.40;52.21;100025.85;2266967;85;25692;-72
2021/10/15 02:17:33;;;;;;;3.47;3.12;;;;;;;15.38;52.19;100027.15;2279483;86;25698;-72
2021/10/15 02:20:54;;;;;;;3.42;3.12;;;;;;;15.37;52.40;100024.09;2339507;83;25584;-72
2021/10/15 02:24:17;;;;;;;3.40;3.10;;;;;;;15.24;52.31;99996.10;2348356;84;25666;-71
2021/10/15 02:27:39;;;;;;;3.50;3.20;;;;;;;15.38;52.33;100025.84;2348806;83;31633;-73
2021/10/15 02:31:00;;;;;;;3.60;3.30;;;;;;;15.38;52.41;100017.09;2348305;84;25630;-72
2021/10/15 02:34:24;;;;;;;4.20;3.80;;;;;;;15.40;52.43;100023.22;2348482;84;25681;-72
2021/10/15 02:37:46;;;;;;;3.70;3.40;;;;;;;15.30;52.59;100000.04;2349220;84;30816;-72
2021/10/15 02:41:07;;;;;;;3.52;3.22;;;;;;;15.39;52.51;100022.77;2349090;84;25616;-71
2021/10/15 02:44:29;;;;;;;4.62;4.20;;;;;;;15.25;52.53;99995.22;2348963;83;30878;-72
2021/10/15 02:47:50;;;;;;;4.80;4.37;;;;;;;15.39;52.59;100018.41;2349319;83;25675;-71
2021/10/15 02:51:12;;;;;;;5.37;4.60;;;;;;;15.27;52.72;99989.53;2347561;84;26318;-71
2021/10/15 02:54:35;;;;;;;4.87;4.40;;;;;;;15.27;52.72;99989.53;2348589;83;25702;-71
2021/10/15 02:57:56;;;;;;;5.03;4.53;;;;;;;15.39;52.74;100007.00;2347322;83;25946;-71
2021/10/15 03:01:26;;;;;;;5.35;4.85;;;;;;;15.40;52.76;100012.27;2349379;84;30873;-71
2021/10/15 03:04:48;;;;;;;4.87;4.47;;;;;;;15.39;52.77;100007.91;2325705;84;25982;-71
2021/10/15 03:08:09;;;;;;;5.58;5.08;;;;;;;15.27;52.84;99986.91;2346361;83;25697;-71
2021/10/15 03:11:31;;;;;;;6.25;5.75;;;;;;;15.40;52.90;100007.02;2346892;83;25684;-72
2021/10/15 03:14:58;;;;;;;6.42;5.83;;;;;;;15.40;52.93;100014.91;2348641;84;25682;-72
2021/10/15 03:18:19;;;;;;;6.08;5.47;;;;;;;15.33;52.99;99998.72;2393917;82;25638;-71
2021/10/15 03:21:40;;;;;;;6.50;5.90;;;;;;;15.41;53.01;100010.07;2396637;82;25552;-72
2021/10/15 03:25:01;;;;;;;6.25;5.65;;;;;;;15.41;53.03;100003.50;2395980;82;31283;-72
2021/10/15 03:28:22;;;;;;;5.90;5.37;;;;;;;15.42;53.12;100005.24;2396159;82;25603;-71
2021/10/15 03:31:45;;;;;;;8.05;6.25;;;;;;;15.41;53.15;99990.38;2395762;82;25782;-71
2021/10/15 03:35:28;;;;;;;6.80;6.20;;;;;;;15.42;52.88;99997.81;2394765;82;25635;-73
2021/10/15 03:38:51;;;;;;;7.10;6.40;;;;;;;15.41;53.24;100000.88;2395176;82;25622;-71
2021/10/15 03:42:12;;;;;;;6.75;6.15;;;;;;;15.43;53.28;100003.08;2396481;82;25654;-72
2021/10/15 03:45:33;;;;;;;6.75;6.08;;;;;;;15.43;53.31;99994.33;2395457;82;31015;-71
2021/10/15 03:48:54;;;;;;;7.47;6.87;;;;;;;15.44;53.37;99994.75;2396166;82;25622;-72
2021/10/15 03:52:15;;;;;;;7.03;6.37;;;;;;;15.44;53.34;99989.50;2396987;82;25685;-72
2021/10/15 03:55:36;;;;;;;7.25;6.60;;;;;;;15.45;53.45;100001.74;2396417;82;25799;-72
2021/10/15 03:58:58;;;;;;;7.17;6.20;;;;;;;15.45;53.70;100001.74;2396086;82;25728;-72
2021/10/15 04:02:19;;;;;;;8.48;7.67;;;;;;;15.45;53.70;100001.74;2395303;82;25970;-72
2021/10/15 04:05:51;;;;;;;7.28;6.72;;;;;;;15.44;53.58;99993.44;2394555;81;30793;-72
2021/10/15 04:09:12;;;;;;;6.58;5.97;;;;;;;15.45;53.60;99996.05;2394689;82;25570;-72
2021/10/15 04:12:40;;;;;;;7.42;6.72;;;;;;;15.45;53.63;99987.30;2394784;82;25632;-72
2021/10/15 04:16:01;;;;;;;6.58;5.97;;;;;;;15.45;53.67;99992.55;2394778;82;26356;-72
2021/10/15 04:19:27;;;;;;;7.50;6.80;;;;;;;15.45;53.73;99993.42;2395493;82;25609;-71
2021/10/15 04:22:48;;;;;;;6.83;6.33;;;;;;;15.45;53.79;99996.05;2395143;82;25627;-72
2021/10/15 04:26:09;;;;;;;6.53;5.92;;;;;;;15.46;53.79;99992.56;2396257;82;25694;-72
2021/10/15 04:29:30;;;;;;;7.12;6.42;;;;;;;15.48;53.76;99988.61;2395467;81;30831;-71
2021/10/15 04:32:52;;;;;;;7.25;6.65;;;;;;;15.48;53.82;99993.41;2396999;81;25618;-71
2021/10/15 04:36:12;;;;;;;6.12;5.53;;;;;;;15.48;53.84;99992.55;2394858;82;25590;-71
2021/10/15 04:39:34;;;;;;;6.30;5.72;;;;;;;15.48;53.88;99985.98;2396445;82;30950;-72
2021/10/15 04:42:54;;;;;;;6.58;6.08;;;;;;;15.48;53.89;99989.48;2396299;82;25680;-72
2021/10/15 04:46:18;;;;;;;5.87;5.37;;;;;;;15.47;53.96;99981.17;2396209;82;31286;-71
2021/10/15 04:49:39;;;;;;;5.95;5.45;;;;;;;15.49;53.97;99983.77;2396856;82;25649;-72
2021/10/15 04:53:00;;;;;;;6.12;5.53;;;;;;;15.39;54.01;99956.69;2396664;82;25664;-72
2021/10/15 04:56:29;;;;;;;5.60;5.12;;;;;;;15.49;54.20;99975.89;2396629;82;25633;-71
2021/10/15 04:59:51;;;;;;;6.43;5.83;;;;;;;15.49;54.20;99975.89;2394437;82;25745;-72
2021/10/15 05:03:12;;;;;;;5.65;5.25;;;;;;;15.49;54.06;99976.80;2396019;81;25641;-72
2021/10/15 05:06:32;;;;;;;6.47;5.50;;;;;;;15.50;54.08;99979.84;2395832;82;30864;-71
2021/10/15 05:09:53;;;;;;;5.37;4.87;;;;;;;15.50;54.11;99979.84;2395354;82;30966;-72
2021/10/15 05:13:17;;;;;;;5.45;5.00;;;;;;;15.51;54.09;99974.16;2395941;82;25769;-72
2021/10/15 05:16:38;;;;;;;5.17;4.60;;;;;;;15.51;54.16;99968.45;2385669;82;25673;-73
2021/10/15 05:20:00;;;;;;;5.58;4.33;;;;;;;15.53;54.33;99971.09;2360384;83;25847;-73
2021/10/15 05:23:21;;;;;;;5.62;3.98;;;;;;;15.53;54.33;99971.09;2360554;83;26266;-73
2021/10/15 05:26:42;;;;;;;8.83;3.08;;;;;;;15.78;56.49;99970.58;2358416;83;30780;-74
2021/10/15 05:30:07;;;;;;;6.45;4.28;;;;;;;15.90;57.23;99964.41;2360594;83;30947;-73
2021/10/15 05:33:28;;;;;;;3.83;3.52;;;;;;;15.96;57.04;99965.67;2344273;82;25605;-73
2021/10/15 05:36:49;;;;;;;4.65;4.25;;;;;;;15.91;56.96;99967.47;2344170;84;31438;-73
2021/10/15 05:40:22;;;;;;;7.85;5.20;;;;;;;15.85;56.89;99970.12;2340252;83;25210;-78
2021/10/15 05:43:54;;;;;;;8.43;6.55;;;;;;;15.78;57.15;99963.56;2331362;82;25652;-78
2021/10/15 05:47:15;;;;;;;9.25;6.75;;;;;;;15.57;56.91;99942.16;2348569;82;25690;-78
2021/10/15 05:51:07;;;;;;;9.48;7.92;;;;;;;15.57;56.91;99942.16;2346572;83;31678;-79
2021/10/15 05:54:57;;;;;;;6.50;5.95;;;;;;;15.65;57.05;99960.97;2335310;83;25557;-77
2021/10/15 05:59:03;;;;;;;8.20;7.53;;;;;;;15.63;57.17;99963.61;2310208;83;25557;-76
2021/10/15 06:02:17;;;;;;;12.78;7.70;;;;;;;15.62;57.22;99958.34;2312319;83;25624;-78
2021/10/15 06:17:43;;;;;;;8.80;8.05;;;;;;;15.60;57.17;99957.05;2310928;82;25770;-77
2021/10/15 06:21:02;;;;;;;8.90;8.13;;;;;;;15.62;57.17;99963.59;2304264;83;25680;-77
2021/10/15 06:24:23;;;;;;;15.10;9.80;;;;;;;15.62;57.20;99963.59;2301905;84;25712;-76
2021/10/15 06:27:44;;;;;;;8.95;8.15;;;;;;;15.62;57.21;99967.54;2308775;85;30895;-78
2021/10/15 06:31:05;;;;;;;8.18;7.47;;;;;;;15.65;57.13;99964.46;2308202;84;31293;-76
2021/10/15 06:34:28;;;;;;;9.73;8.85;;;;;;;15.68;57.14;99972.38;2306948;84;30924;-77
2021/10/15 06:37:49;;;;;;;8.48;7.75;;;;;;;15.70;57.19;99974.56;2313073;85;25755;-78
2021/10/15 06:41:10;;;;;;;9.98;8.10;;;;;;;15.72;57.13;99977.17;2313761;84;30829;-78
2021/10/15 06:44:31;;;;;;;8.23;7.53;;;;;;;15.72;57.09;99972.78;2311874;85;25684;-77
2021/10/15 06:48:00;;;;;;;7.62;6.97;;;;;;;15.75;57.07;99981.10;2301403;84;25683;-77
2021/10/15 06:51:30;;;;;;;8.95;7.67;;;;;;;15.77;57.05;99972.78;2293256;84;25928;-79
2021/10/15 06:55:17;;;;;;;8.45;7.65;;;;;;;15.84;57.05;99983.70;2292175;84;25725;-77
2021/10/15 06:58:41;;;;;;;7.95;7.15;;;;;;;15.88;56.96;99978.86;2279731;85;25902;-78
2021/10/15 07:02:22;;;;;;;;;;;;;;;;;;;;;
2021/10/15 07:05:47;;;;;;;8.45;7.75;;;;;;;15.99;56.81;99969.60;2275118;85;26173;-77
2021/10/15 07:09:25;;;;;;;9.85;7.75;;;;;;;16.04;56.74;99966.08;2273204;85;26166;-78
2021/10/15 07:12:48;;;;;;;8.07;7.30;;;;;;;16.10;56.59;99965.59;2201961;88;26227;-79
2021/10/15 07:16:15;;;;;;;7.37;6.78;;;;;;;16.14;56.57;99966.03;2234187;87;26027;-73
2021/10/15 07:19:36;;;;;;;7.53;6.85;;;;;;;16.19;56.44;99962.92;2270484;86;25875;-76
2021/10/15 07:22:57;;;;;;;8.33;7.62;;;;;;;16.24;56.38;99967.28;2276470;85;31324;-78
2021/10/15 07:26:18;;;;;;;9.33;8.55;;;;;;;16.27;56.24;99981.73;2306373;85;31111;-79
2021/10/15 07:29:39;;;;;;;14.38;8.53;;;;;;;16.25;56.08;99980.86;2306246;85;30988;-78
2021/10/15 07:33:00;;;;;;;9.28;8.43;;;;;;;16.29;56.01;99983.02;2307059;85;31341;-81
2021/10/15 07:36:21;;;;;;;13.38;9.18;;;;;;;16.09;55.33;99987.52;2322464;84;25805;-82
2021/10/15 07:39:42;;;;;;;9.50;8.63;;;;;;;15.31;56.35;99999.16;2354877;83;25622;-77
2021/10/15 07:43:11;;;;;;;9.65;8.85;;;;;;;14.78;57.30;99990.88;2353152;83;31937;-79
2021/10/15 07:46:32;;;;;;;11.33;8.60;;;;;;;14.48;58.17;99995.20;2347378;83;25803;-79
2021/10/15 07:49:53;;;;;;;12.50;8.90;;;;;;;14.23;59.13;99998.20;2350512;83;25654;-77
2021/10/15 07:53:14;;;;;;;9.63;8.70;;;;;;;13.79;59.70;99958.75;2343253;83;31067;-77
2021/10/15 07:56:35;;;;;;;11.60;8.80;;;;;;;13.79;60.15;99992.81;2354833;82;26353;-75
2021/10/15 07:59:56;;;;;;;9.45;8.65;;;;;;;13.76;60.66;99995.41;2354423;83;31497;-75
2021/10/15 08:03:31;;;;;;;11.63;9.08;;;;;;;13.67;61.15;99970.06;2354798;83;26310;-75
2021/10/15 08:06:58;;;;;;;8.88;8.00;;;;;;;13.67;61.15;99970.06;2348411;83;25794;-73
2021/10/15 08:10:20;;;;;;;10.50;8.10;;;;;;;13.69;61.32;99977.05;2354907;82;25987;-73
2021/10/15 08:13:41;;;;;;;9.70;7.35;;;;;;;13.62;61.32;99977.89;2354902;84;25638;-72
2021/10/15 08:17:02;;;;;;;8.98;8.08;;;;;;;13.66;61.58;99978.33;2355013;83;25743;-72
2021/10/15 08:20:26;;;;;;;8.70;7.90;;;;;;;13.66;61.58;99988.81;2354114;83;25718;-73
2021/10/15 08:23:49;;;;;;;10.65;8.05;;;;;;;13.73;61.72;99975.31;2334803;84;25802;-73
2021/10/15 08:27:10;;;;;;;8.03;7.40;;;;;;;13.78;61.58;99968.80;2355401;83;25664;-74
2021/10/15 08:30:32;;;;;;;11.18;8.88;;;;;;;13.91;61.66;99971.47;2350642;83;30858;-72
2021/10/15 08:33:56;;;;;;;9.10;7.10;;;;;;;13.93;61.43;99971.02;2354672;83;25200;-73
2021/10/15 08:37:17;;;;;;;10.48;7.62;;;;;;;13.98;61.30;99961.01;2355188;83;25745;-73
2021/10/15 08:40:38;;;;;;;8.08;7.28;;;;;;;13.92;61.33;99977.14;2354667;82;25650;-73
2021/10/15 08:43:59;;;;;;;8.50;7.70;;;;;;;13.98;61.35;99974.12;2354760;84;30880;-74
2021/10/15 08:47:20;;;;;;;7.33;6.62;;;;;;;14.10;61.15;99973.69;2355307;83;30841;-74
2021/10/15 08:50:43;;;;;;;8.20;7.40;;;;;;;14.23;61.01;99978.53;2368594;82;25977;-73
2021/10/15 08:54:05;;;;;;;11.48;7.42;;;;;;;14.35;60.96;99970.70;2373894;82;25721;-73
2021/10/15 08:57:30;;;;;;;7.92;7.12;;;;;;;14.80;60.53;99960.27;2372394;82;26295;-74
2021/10/15 09:00:57;;;;;;;8.13;6.60;;;;;;;15.41;59.39;99958.85;2374906;81;25815;-73
2021/10/15 09:04:20;;;;;;;7.33;6.62;;;;;;;15.98;58.88;99958.66;2379363;82;25237;-73
2021/10/15 09:07:46;;;;;;;7.25;6.15;;;;;;;16.79;57.52;99948.05;2387087;82;26274;-73
2021/10/15 09:11:31;;;;;;;9.23;6.78;;;;;;;17.16;55.46;99950.77;2389915;82;25596;-74
2021/10/15 09:14:52;;;;;;;6.62;6.10;;;;;;;16.93;54.95;99949.66;2388367;82;25789;-74
2021/10/15 09:18:32;;;;;;;9.03;6.12;;;;;;;16.56;54.89;99958.73;2354694;82;30831;-80
2021/10/15 09:22:11;;;;;;;6.22;5.72;;;;;;;16.35;54.96;99946.61;2386721;82;25707;-78
2021/10/15 09:25:57;;;;;;;11.55;5.60;;;;;;;16.28;55.36;99952.36;2392235;82;25725;-80
2021/10/15 09:29:45;;;;;;;7.22;6.25;;;;;;;16.33;55.18;99938.71;2378917;82;25821;-85
2021/10/15 09:33:07;;;;;;;7.17;6.00;;;;;;;16.23;55.41;99940.56;2358297;82;25701;-80
2021/10/15 09:36:40;;;;;;;6.92;6.25;;;;;;;16.08;55.82;99946.34;2355946;82;25747;-80
2021/10/15 09:40:42;;;;;;;10.20;6.22;;;;;;;16.01;55.96;99941.11;2346150;83;25712;-78
2021/10/15 09:44:31;;;;;;;15.70;5.87;;;;;;;16.11;56.06;99939.31;2245018;87;25996;-79
2021/10/15 09:47:56;;;;;;;6.22;5.72;;;;;;;16.24;55.70;99930.91;2268318;85;25650;-79
2021/10/15 09:51:26;;;;;;;11.10;6.25;;;;;;;16.47;55.39;99933.37;2262180;86;25712;-81
2021/10/15 09:55:28;;;;;;;8.03;5.83;;;;;;;17.19;54.48;99936.70;2257601;86;26068;-81
2021/10/15 09:59:11;;;;;;;6.20;5.70;;;;;;;18.06;53.26;99932.16;2255911;87;25809;-76
2021/10/15 10:02:46;;;;;;;10.38;5.90;;;;;;;18.57;51.04;99932.25;2262477;86;25709;-76
2021/10/15 10:06:13;;;;;;;6.72;5.95;;;;;;;18.41;50.00;99934.25;2256972;87;25732;-81
2021/10/15 10:09:34;;;;;;;6.30;5.72;;;;;;;18.27;50.12;99927.00;2239212;86;26057;-79
2021/10/15 10:12:56;;;;;;;6.20;5.35;;;;;;;18.35;49.94;99923.34;2250174;86;25810;-73
2021/10/15 10:16:18;;;;;;;8.20;6.35;;;;;;;18.43;50.18;99917.96;2248279;84;25863;-78
2021/10/15 10:19:42;;;;;;;10.75;8.60;;;;;;;19.06;50.02;99920.85;2266608;84;25793;-75
2021/10/15 10:23:36;;;;;;;8.38;7.12;;;;;;;19.48;47.58;99922.27;2348065;84;25610;-76
2021/10/15 10:26:59;;;;;;;6.12;5.50;;;;;;;19.33;47.63;99919.00;2344977;84;25692;-76
2021/10/15 10:30:37;;;;;;;6.42;5.83;;;;;;;19.38;47.50;99912.33;2349074;84;25911;-79
2021/10/15 10:34:04;;;;;;;6.37;5.00;;;;;;;19.60;47.09;99902.16;2246441;87;25771;-79
2021/10/15 10:37:25;;;;;;;6.30;5.80;;;;;;;19.95;46.60;99894.84;2237509;87;25694;-78
2021/10/15 10:41:09;;;;;;;7.10;5.53;;;;;;;19.98;45.77;99893.87;2239492;87;26004;-79
2021/10/15 10:44:35;;;;;;;5.67;5.15;;;;;;;19.93;45.88;99894.44;2249430;87;25785;-73
2021/10/15 10:48:05;;;;;;;9.00;5.70;;;;;;;19.89;45.68;99884.84;2256482;86;26357;-73
2021/10/15 10:51:31;;;;;;;12.10;5.87;;;;;;;19.97;45.73;99894.78;2266326;85;25728;-73
2021/10/15 10:54:53;;;;;;;6.33;5.65;;;;;;;19.82;45.47;99893.37;2240895;87;25250;-73
2021/10/15 10:58:33;;;;;;;7.17;5.53;;;;;;;19.65;45.57;99899.48;2265684;87;25774;-73
2021/10/15 11:02:04;;;;;;;9.43;5.22;;;;;;;19.51;45.65;99897.09;2266078;87;25730;-74
2021/10/15 11:05:35;;;;;;;8.33;6.35;;;;;;;19.01;46.17;99908.20;2253479;86;25752;-74
2021/10/15 11:09:01;;;;;;;7.62;5.87;;;;;;;18.48;46.92;99898.95;2205037;87;25761;-74
2021/10/15 11:12:34;;;;;;;6.67;6.08;;;;;;;18.49;47.54;99887.93;2312460;84;25668;-74
2021/10/15 11:15:55;;;;;;;7.03;6.42;;;;;;;18.65;47.46;99880.18;2321527;84;25675;-73
2021/10/15 11:19:20;;;;;;;6.80;6.10;;;;;;;18.57;47.34;99880.32;2348187;83;25747;-73
2021/10/15 11:22:45;;;;;;;6.03;5.25;;;;;;;18.51;47.00;99872.50;2356375;82;25555;-74
2021/10/15 11:26:07;;;;;;;6.67;6.00;;;;;;;18.44;47.16;99869.55;2332056;84;25967;-74
2021/10/15 11:29:34;;;;;;;6.42;5.80;;;;;;;18.46;47.15;99866.87;2341742;83;26325;-74
2021/10/15 11:32:58;;;;;;;6.70;6.00;;;;;;;18.57;46.97;99865.80;2347438;83;25698;-73
2021/10/15 11:36:21;;;;;;;7.80;5.62;;;;;;;18.61;46.80;99861.34;2367478;83;25747;-74
2021/10/15 11:39:42;;;;;;;6.47;5.35;;;;;;;18.65;46.84;99852.45;2368944;83;25297;-75
2021/10/15 11:43:27;;;;;;;5.90;5.40;;;;;;;18.60;46.62;99854.33;2369344;83;26459;-75
2021/10/15 11:46:48;;;;;;;7.00;5.92;;;;;;;18.80;46.25;99851.36;2369164;82;25579;-74
2021/10/15 11:50:10;;;;;;;5.25;4.85;;;;;;;18.61;45.98;99839.77;2365650;82;25689;-76
2021/10/15 11:53:39;;;;;;;6.05;5.40;;;;;;;18.62;45.97;99853.38;2335289;84;25675;-75
2021/10/15 11:57:00;;;;;;;;;;;;;;;18.81;45.88;99846.03;2370454;81;25678;-75
2021/10/15 12:00:21;;;;;;;6.00;5.25;;;;;;;19.01;45.55;99839.52;2364149;82;26497;-75
2021/10/15 12:03:52;;;;;;;7.85;5.08;;;;;;;19.32;45.22;99839.30;2365414;82;25702;-75
2021/10/15 12:07:13;;;;;;;5.60;5.10;;;;;;;19.44;44.45;99835.97;2370448;81;25364;-75
2021/10/15 12:10:34;;;;;;;8.25;5.15;;;;;;;19.33;44.55;99822.98;2366672;83;25856;-75
2021/10/15 12:14:41;;;;;;;5.72;5.22;;;;;;;19.12;44.23;99830.91;2354886;82;25676;-76
2021/10/15 12:18:18;;;;;;;6.72;5.08;;;;;;;18.72;44.77;99824.20;2357244;82;26027;-74
2021/10/15 12:22:03;;;;;;;5.22;4.60;;;;;;;19.18;44.21;99824.19;2370421;82;25892;-76
2021/10/15 12:25:27;;;;;;;6.12;4.30;;;;;;;19.35;43.30;99811.48;2344951;82;25997;-75
2021/10/15 12:28:49;;;;;;;5.37;4.87;;;;;;;19.40;43.28;99808.73;2371899;82;26169;-75
2021/10/15 12:32:21;;;;;;;5.22;4.75;;;;;;;19.07;43.21;99815.16;2375019;83;25609;-75
2021/10/15 12:35:42;;;;;;;6.65;4.45;;;;;;;18.73;43.75;99815.38;2375203;82;25631;-77
2021/10/15 12:39:25;;;;;;;6.00;5.00;;;;;;;18.75;44.03;99818.87;2348621;82;25659;-76
2021/10/15 12:42:57;;;;;;;5.92;4.60;;;;;;;18.71;44.06;99815.84;2362671;82;25707;-75
2021/10/15 12:46:19;;;;;;;5.03;4.60;;;;;;;18.47;44.54;99810.56;2354607;81;25241;-76
2021/10/15 12:49:59;;;;;;;4.78;4.22;;;;;;;18.16;44.38;99801.41;2353298;84;25202;-76
2021/10/15 12:53:20;;;;;;;4.80;4.12;;;;;;;17.93;44.57;99802.22;2334408;82;25809;-78
2021/10/15 12:56:42;;;;;;;8.25;3.52;;;;;;;17.76;45.18;99801.58;2273628;85;25680;-76
2021/10/15 13:00:11;;;;;;;3.87;3.08;;;;;;;17.91;45.52;99798.73;2352856;83;26260;-76
2021/10/15 13:03:37;;;;;;;5.42;2.80;;;;;;;18.23;45.46;99792.94;2351566;83;25437;-75
2021/10/15 13:06:58;;;;;;;2.70;2.47;;;;;;;18.52;45.33;99791.54;2351907;83;25678;-75
2021/10/15 13:10:22;;;;;;;2.92;2.67;;;;;;;18.75;45.16;99785.41;2353249;84;31399;-76
2021/10/15 13:13:49;;;;;;;3.10;2.80;;;;;;;18.93;45.04;99785.94;2352860;84;25595;-75
2021/10/15 13:17:11;;;;;;;2.60;2.22;;;;;;;19.06;44.91;99782.16;2351848;83;25678;-75
2021/10/15 13:20:32;;;;;;;4.12;3.20;;;;;;;19.17;44.81;99777.96;2358380;81;26501;-76
2021/10/15 13:23:53;;;;;;;5.72;3.37;;;;;;;19.21;44.75;99776.56;2336099;84;25923;-76
2021/10/15 13:27:19;;;;;;;4.50;2.85;;;;;;;19.24;44.69;99765.06;2293979;86;30948;-75
2021/10/15 13:30:49;;;;;;;5.78;3.17;;;;;;;19.30;44.69;99771.09;2302986;85;25850;-76
2021/10/15 13:34:21;;;;;;;9.38;3.98;;;;;;;19.36;44.74;99775.34;2279972;84;25577;-76
2021/10/15 13:41:35;;;;;;;10.48;3.45;;;;;;;19.42;44.69;99760.68;2255862;84;25670;-77
2021/10/15 13:45:08;;;;;;;3.17;2.85;;;;;;;19.43;44.64;99764.19;2270717;86;25653;-73
2021/10/15 13:51:52;;;;;;;6.97;3.45;;;;;;;19.40;44.61;99768.22;2272211;85;25874;-73
2021/10/15 13:55:13;;;;;;;4.78;3.10;;;;;;;19.34;44.64;99762.18;2259671;85;25685;-73
2021/10/15 13:58:50;;;;;;;3.67;3.37;;;;;;;19.33;44.68;99755.59;2290101;85;25679;-73
2021/10/15 14:02:13;;;;;;;3.40;3.10;;;;;;;19.31;44.75;99762.70;2353446;83;25844;-73
2021/10/15 14:05:34;;;;;;;3.40;2.95;;;;;;;19.24;44.74;99761.97;2353621;83;25942;-73
2021/10/15 14:08:55;;;;;;;4.22;3.52;;;;;;;19.19;44.73;99758.99;2359676;83;26344;-74
2021/10/15 14:12:16;;;;;;;4.80;2.98;;;;;;;19.15;44.82;99762.16;2360543;82;31367;-74
2021/10/15 14:15:37;;;;;;;3.10;2.80;;;;;;;19.12;44.99;99764.86;2354160;83;26287;-74
2021/10/15 14:18:57;;;;;;;4.17;3.00;;;;;;;19.11;45.17;99765.77;2352759;82;30918;-73
2021/10/15 14:22:18;;;;;;;5.47;3.35;;;;;;;19.08;45.29;99764.05;2318313;84;30993;-73
2021/10/15 14:25:40;;;;;;;3.45;3.15;;;;;;;19.04;45.25;99770.31;2316310;82;26311;-73
2021/10/15 14:29:02;;;;;;;2.92;2.65;;;;;;;18.99;45.25;99764.23;2381689;82;30934;-74
2021/10/15 14:32:27;;;;;;;3.60;3.30;;;;;;;18.98;45.33;99764.28;2347830;82;26018;-73
2021/10/15 14:35:48;;;;;;;3.98;3.60;;;;;;;18.93;45.32;99773.60;2351478;81;25679;-74
2021/10/15 14:39:09;;;;;;;2.77;2.58;;;;;;;18.88;45.30;99763.59;2372843;81;25474;-74
2021/10/15 14:42:31;;;;;;;3.30;3.00;;;;;;;18.84;45.39;99762.79;2343134;82;31446;-73
2021/10/15 14:45:52;;;;;;;3.55;2.83;;;;;;;18.83;45.44;99768.08;2345008;81;26287;-75
2021/10/15 14:49:13;;;;;;;3.00;2.70;;;;;;;18.78;45.51;99762.91;2336053;83;30806;-73
2021/10/15 14:52:34;;;;;;;3.50;2.72;;;;;;;18.76;45.61;99762.51;2309533;83;25676;-74
2021/10/15 14:55:55;;;;;;;3.60;3.30;;;;;;;18.73;45.63;99769.17;2303219;84;25621;-74
2021/10/15 14:59:16;;;;;;;4.92;3.05;;;;;;;18.69;45.65;99764.82;2301437;85;30927;-74
2021/10/15 15:06:16;;;;;;;3.12;2.92;;;;;;;18.60;45.70;99761.47;2209872;88;26062;-75
2021/10/15 15:09:43;;;;;;;4.97;3.00;;;;;;;18.58;45.71;99744.78;2206599;87;31127;-75
2021/10/15 15:13:05;;;;;;;3.27;2.75;;;;;;;18.53;45.63;99745.79;2217914;88;25790;-75
2021/10/15 15:16:27;;;;;;;3.50;3.20;;;;;;;18.47;45.63;99759.09;2225484;85;26486;-71
2021/10/15 15:19:48;;;;;;;3.62;2.55;;;;;;;18.41;45.71;99762.25;2276083;84;26663;-71
2021/10/15 15:23:14;;;;;;;6.95;3.10;;;;;;;18.40;45.79;99756.56;2249547;85;31056;-72
2021/10/15 15:27:02;;;;;;;2.83;2.30;;;;;;;18.41;45.87;99764.02;2289647;85;25778;-72
2021/10/15 15:30:25;;;;;;;2.90;2.70;;;;;;;18.41;45.86;99762.25;2282230;85;25697;-71
2021/10/15 15:33:50;;;;;;;3.35;2.80;;;;;;;18.41;45.93;99770.17;2281300;86;26151;-72
2021/10/15 15:37:26;;;;;;;3.62;3.33;;;;;;;18.41;45.98;99766.66;2247774;86;25802;-72
2021/10/15 15:40:53;;;;;;;4.75;2.72;;;;;;;18.37;46.03;99758.39;2248110;87;26629;-72
2021/10/15 15:44:18;;;;;;;3.05;2.70;;;;;;;18.36;46.04;99766.77;2254237;87;25771;-71
2021/10/15 15:47:38;;;;;;;3.35;2.40;;;;;;;18.33;46.04;99767.27;2253453;87;26502;-72
2021/10/15 15:51:18;;;;;;;5.72;2.85;;;;;;;18.30;46.15;99765.55;2247543;85;25708;-72
2021/10/15 15:54:39;;;;;;;3.12;2.83;;;;;;;18.30;46.24;99763.36;2274729;85;25868;-71
2021/10/15 15:58:03;;;;;;;3.37;3.08;;;;;;;18.27;46.30;99773.52;2257571;87;25344;-72
2021/10/15 16:01:24;;;;;;;3.37;3.00;;;;;;;18.24;46.33;99772.25;2260857;87;25867;-73
2021/10/15 16:04:45;;;;;;;3.90;3.20;;;;;;;18.23;46.31;99773.60;2261156;86;30958;-72
2021/10/15 16:08:09;;;;;;;2.98;2.65;;;;;;;18.21;46.36;99776.25;2279253;84;30916;-74
2021/10/15 16:11:29;;;;;;;3.40;2.90;;;;;;;18.19;46.43;99771.47;2353132;84;25706;-72
2021/10/15 16:14:50;;;;;;;6.22;3.20;;;;;;;18.17;46.49;99765.34;2353207;84;25698;-73
2021/10/15 16:18:12;;;;;;;3.40;2.50;;;;;;;18.14;46.56;99773.30;2353385;84;31429;-72
2021/10/15 16:21:33;;;;;;;3.17;2.80;;;;;;;18.14;46.56;99782.53;2376479;81;25668;-72
2021/10/15 16:24:54;;;;;;;4.28;3.02;;;;;;;18.11;46.64;99778.63;2437992;81;26258;-72
2021/10/15 16:28:15;;;;;;;3.30;3.02;;;;;;;18.08;46.71;99775.58;2438375;81;31314;-72